sensor_id;sensor_type;location;lat;lon;timestamp;P1;durP1;ratioP1;P2;durP2;ratioP2
40717;SDS011;26405;51.850;-2.246;2023-02-15T00:01:18;28.70;;;17.38;;
40717;SDS011;26405;51.850;-2.246;2023-02-15T00:03:43;31.80;;;18.23;;
40717;SDS011;26405;51.850;-2.246;2023-02-15T00:06:08;31.73;;;18.48;;
40717;SDS011;26405;51.850;-2.246;2023-02-15T00:08:33;30.02;;;18.98;;
40717;SDS011;26405;51.850;-2.246;2023-02-15T00:11:06;30.50;;;17.58;;
40717;SDS011;26405;51.850;-2.246;2023-02-15T00:13:31;29.77;;;17.42;;
40717;SDS011;26405;51.850;-2.246;2023-02-15T00:16:02;29.63;;;16.77;;
40717;SDS011;26405;51.850;-2.246;2023-02-15T00:18:28;27.55;;;17.42;;
40717;SDS011;26405;51.850;-2.246;2023-02-15T00:20:54;28.05;;;16.83;;
40717;SDS011;26405;51.850;-2.246;2023-02-15T00:23:19;27.95;;;16.85;;
40717;SDS011;26405;51.850;-2.246;2023-02-15T00:25:44;27.52;;;16.17;;
40717;SDS011;26405;51.850;-2.246;2023-02-15T00:28:09;30.55;;;17.45;;
40717;SDS011;26405;51.850;-2.246;2023-02-15T00:30:34;28.45;;;17.33;;
40717;SDS011;26405;51.850;-2.246;2023-02-15T00:33:00;27.85;;;16.05;;
40717;SDS011;26405;51.850;-2.246;2023-02-15T00:35:25;26.48;;;15.45;;
40717;SDS011;26405;51.850;-2.246;2023-02-15T00:37:50;29.05;;;16.00;;
40717;SDS011;26405;51.850;-2.246;2023-02-15T00:40:17;28.38;;;15.57;;
40717;SDS011;26405;51.850;-2.246;2023-02-15T00:42:42;27.45;;;15.73;;
40717;SDS011;26405;51.850;-2.246;2023-02-15T00:45:08;28.48;;;16.23;;
40717;SDS011;26405;51.850;-2.246;2023-02-15T00:47:33;26.67;;;15.65;;
40717;SDS011;26405;51.850;-2.246;2023-02-15T00:49:58;27.38;;;16.50;;
40717;SDS011;26405;51.850;-2.246;2023-02-15T00:52:24;28.50;;;15.40;;
40717;SDS011;26405;51.850;-2.246;2023-02-15T00:54:49;26.60;;;16.08;;
40717;SDS011;26405;51.850;-2.246;2023-02-15T00:57:14;29.15;;;15.45;;
40717;SDS011;26405;51.850;-2.246;2023-02-15T00:59:39;25.38;;;15.52;;
40717;SDS011;26405;51.850;-2.246;2023-02-15T01:02:04;26.02;;;15.45;;
40717;SDS011;26405;51.850;-2.246;2023-02-15T01:04:30;25.13;;;13.98;;
40717;SDS011;26405;51.850;-2.246;2023-02-15T01:06:55;26.55;;;16.45;;
40717;SDS011;26405;51.850;-2.246;2023-02-15T01:09:20;26.60;;;15.60;;
40717;SDS011;26405;51.850;-2.246;2023-02-15T01:11:45;26.95;;;16.45;;
40717;SDS011;26405;51.850;-2.246;2023-02-15T01:14:11;27.52;;;16.83;;
40717;SDS011;26405;51.850;-2.246;2023-02-15T01:16:36;27.65;;;16.45;;
40717;SDS011;26405;51.850;-2.246;2023-02-15T01:19:01;27.05;;;15.77;;
40717;SDS011;26405;51.850;-2.246;2023-02-15T01:21:27;30.27;;;16.17;;
40717;SDS011;26405;51.850;-2.246;2023-02-15T01:23:53;29.42;;;16.40;;
40717;SDS011;26405;51.850;-2.246;2023-02-15T01:26:18;29.40;;;15.57;;
40717;SDS011;26405;51.850;-2.246;2023-02-15T01:28:44;27.13;;;16.17;;
40717;SDS011;26405;51.850;-2.246;2023-02-15T01:31:19;28.38;;;16.63;;
40717;SDS011;26405;51.850;-2.246;2023-02-15T01:33:46;27.03;;;16.70;;
40717;SDS011;26405;51.850;-2.246;2023-02-15T01:36:11;26.52;;;16.38;;
40717;SDS011;26405;51.850;-2.246;2023-02-15T01:38:36;30.08;;;16.70;;
40717;SDS011;26405;51.850;-2.246;2023-02-15T01:41:02;27.58;;;16.50;;
40717;SDS011;26405;51.850;-2.246;2023-02-15T01:43:48;29.63;;;16.13;;
40717;SDS011;26405;51.850;-2.246;2023-02-15T01:46:15;30.60;;;16.77;;
40717;SDS011;26405;51.850;-2.246;2023-02-15T01:48:45;29.37;;;17.43;;
40717;SDS011;26405;51.850;-2.246;2023-02-15T01:51:11;30.60;;;17.75;;
40717;SDS011;26405;51.850;-2.246;2023-02-15T01:53:43;27.65;;;17.02;;
40717;SDS011;26405;51.850;-2.246;2023-02-15T01:56:17;28.50;;;16.85;;
40717;SDS011;26405;51.850;-2.246;2023-02-15T01:58:44;27.20;;;16.55;;
40717;SDS011;26405;51.850;-2.246;2023-02-15T02:01:10;26.52;;;16.33;;
40717;SDS011;26405;51.850;-2.246;2023-02-15T02:03:42;26.88;;;16.90;;
40717;SDS011;26405;51.850;-2.246;2023-02-15T02:06:10;29.33;;;17.80;;
40717;SDS011;26405;51.850;-2.246;2023-02-15T02:08:35;26.48;;;16.20;;
40717;SDS011;26405;51.850;-2.246;2023-02-15T02:11:01;29.02;;;17.25;;
40717;SDS011;26405;51.850;-2.246;2023-02-15T02:13:26;28.58;;;16.98;;
40717;SDS011;26405;51.850;-2.246;2023-02-15T02:15:54;27.63;;;16.77;;
40717;SDS011;26405;51.850;-2.246;2023-02-15T02:18:38;27.77;;;17.00;;
40717;SDS011;26405;51.850;-2.246;2023-02-15T02:21:27;29.92;;;17.58;;
40717;SDS011;26405;51.850;-2.246;2023-02-15T02:37:15;28.05;;;16.83;;
40717;SDS011;26405;51.850;-2.246;2023-02-15T02:40:47;27.27;;;15.93;;
40717;SDS011;26405;51.850;-2.246;2023-02-15T02:42:56;27.92;;;16.40;;
40717;SDS011;26405;51.850;-2.246;2023-02-15T02:45:45;29.33;;;17.88;;
40717;SDS011;26405;51.850;-2.246;2023-02-15T02:48:14;28.67;;;16.40;;
40717;SDS011;26405;51.850;-2.246;2023-02-15T02:50:40;29.20;;;16.52;;
40717;SDS011;26405;51.850;-2.246;2023-02-15T02:53:06;27.90;;;17.15;;
40717;SDS011;26405;51.850;-2.246;2023-02-15T02:55:33;29.20;;;16.90;;
40717;SDS011;26405;51.850;-2.246;2023-02-15T02:58:02;26.85;;;16.33;;
40717;SDS011;26405;51.850;-2.246;2023-02-15T03:00:30;28.38;;;17.08;;
40717;SDS011;26405;51.850;-2.246;2023-02-15T03:02:59;25.10;;;15.68;;
40717;SDS011;26405;51.850;-2.246;2023-02-15T03:05:30;27.58;;;17.17;;
40717;SDS011;26405;51.850;-2.246;2023-02-15T03:07:55;27.23;;;17.15;;
40717;SDS011;26405;51.850;-2.246;2023-02-15T03:10:22;29.27;;;18.83;;
40717;SDS011;26405;51.850;-2.246;2023-02-15T03:12:48;28.38;;;18.48;;
40717;SDS011;26405;51.850;-2.246;2023-02-15T03:15:29;31.30;;;19.42;;
40717;SDS011;26405;51.850;-2.246;2023-02-15T03:18:16;29.77;;;18.95;;
40717;SDS011;26405;51.850;-2.246;2023-02-15T03:20:41;32.42;;;19.50;;
40717;SDS011;26405;51.850;-2.246;2023-02-15T03:23:10;33.90;;;23.15;;
40717;SDS011;26405;51.850;-2.246;2023-02-15T03:25:38;33.05;;;22.65;;
40717;SDS011;26405;51.850;-2.246;2023-02-15T03:28:08;34.92;;;23.42;;
40717;SDS011;26405;51.850;-2.246;2023-02-15T03:30:34;32.97;;;22.38;;
40717;SDS011;26405;51.850;-2.246;2023-02-15T03:33:01;35.60;;;23.93;;
40717;SDS011;26405;51.850;-2.246;2023-02-15T03:35:31;34.75;;;22.65;;
40717;SDS011;26405;51.850;-2.246;2023-02-15T03:37:59;36.38;;;24.50;;
40717;SDS011;26405;51.850;-2.246;2023-02-15T03:40:31;33.90;;;24.27;;
40717;SDS011;26405;51.850;-2.246;2023-02-15T03:43:19;35.50;;;23.95;;
40717;SDS011;26405;51.850;-2.246;2023-02-15T03:45:47;33.75;;;23.58;;
40717;SDS011;26405;51.850;-2.246;2023-02-15T03:48:29;35.78;;;24.20;;
40717;SDS011;26405;51.850;-2.246;2023-02-15T03:50:57;33.42;;;24.33;;
40717;SDS011;26405;51.850;-2.246;2023-02-15T03:53:43;37.13;;;24.25;;
40717;SDS011;26405;51.850;-2.246;2023-02-15T03:56:09;36.30;;;24.45;;
40717;SDS011;26405;51.850;-2.246;2023-02-15T03:58:34;37.97;;;25.27;;
40717;SDS011;26405;51.850;-2.246;2023-02-15T04:01:22;35.95;;;24.83;;
40717;SDS011;26405;51.850;-2.246;2023-02-15T04:04:11;36.22;;;24.73;;
40717;SDS011;26405;51.850;-2.246;2023-02-15T04:06:39;35.65;;;24.98;;
40717;SDS011;26405;51.850;-2.246;2023-02-15T04:09:05;33.60;;;23.92;;
40717;SDS011;26405;51.850;-2.246;2023-02-15T04:11:48;37.50;;;26.33;;
40717;SDS011;26405;51.850;-2.246;2023-02-15T04:14:13;35.08;;;24.30;;
40717;SDS011;26405;51.850;-2.246;2023-02-15T04:16:57;35.70;;;26.27;;
40717;SDS011;26405;51.850;-2.246;2023-02-15T04:19:22;35.15;;;25.52;;
40717;SDS011;26405;51.850;-2.246;2023-02-15T04:22:06;40.95;;;27.08;;
40717;SDS011;26405;51.850;-2.246;2023-02-15T04:24:50;36.67;;;26.33;;
40717;SDS011;26405;51.850;-2.246;2023-02-15T04:27:34;37.95;;;26.08;;
40717;SDS011;26405;51.850;-2.246;2023-02-15T04:29:59;37.60;;;26.15;;
40717;SDS011;26405;51.850;-2.246;2023-02-15T04:32:24;37.97;;;25.95;;
40717;SDS011;26405;51.850;-2.246;2023-02-15T04:34:50;38.35;;;27.70;;
40717;SDS011;26405;51.850;-2.246;2023-02-15T04:37:15;36.65;;;25.80;;
40717;SDS011;26405;51.850;-2.246;2023-02-15T04:39:40;37.40;;;26.23;;
40717;SDS011;26405;51.850;-2.246;2023-02-15T04:42:06;37.13;;;24.77;;
40717;SDS011;26405;51.850;-2.246;2023-02-15T04:44:31;34.25;;;23.70;;
40717;SDS011;26405;51.850;-2.246;2023-02-15T04:46:56;34.53;;;24.23;;
40717;SDS011;26405;51.850;-2.246;2023-02-15T04:49:21;35.42;;;24.05;;
40717;SDS011;26405;51.850;-2.246;2023-02-15T04:51:46;34.88;;;24.63;;
40717;SDS011;26405;51.850;-2.246;2023-02-15T04:54:12;35.22;;;24.58;;
40717;SDS011;26405;51.850;-2.246;2023-02-15T04:56:37;35.63;;;24.92;;
40717;SDS011;26405;51.850;-2.246;2023-02-15T04:59:04;37.17;;;25.23;;
40717;SDS011;26405;51.850;-2.246;2023-02-15T05:01:29;36.78;;;25.58;;
40717;SDS011;26405;51.850;-2.246;2023-02-15T05:03:54;38.78;;;26.60;;
40717;SDS011;26405;51.850;-2.246;2023-02-15T05:06:20;36.45;;;25.40;;
40717;SDS011;26405;51.850;-2.246;2023-02-15T05:08:45;34.55;;;25.35;;
40717;SDS011;26405;51.850;-2.246;2023-02-15T05:11:10;35.42;;;24.35;;
40717;SDS011;26405;51.850;-2.246;2023-02-15T05:13:35;35.47;;;25.02;;
40717;SDS011;26405;51.850;-2.246;2023-02-15T05:16:01;34.47;;;24.48;;
40717;SDS011;26405;51.850;-2.246;2023-02-15T05:18:26;34.80;;;25.08;;
40717;SDS011;26405;51.850;-2.246;2023-02-15T05:20:51;37.45;;;24.73;;
40717;SDS011;26405;51.850;-2.246;2023-02-15T05:23:16;34.55;;;25.08;;
40717;SDS011;26405;51.850;-2.246;2023-02-15T05:25:45;33.20;;;24.02;;
40717;SDS011;26405;51.850;-2.246;2023-02-15T05:28:29;34.58;;;23.67;;
40717;SDS011;26405;51.850;-2.246;2023-02-15T05:33:22;36.75;;;25.90;;
40717;SDS011;26405;51.850;-2.246;2023-02-15T05:35:48;36.25;;;25.08;;
40717;SDS011;26405;51.850;-2.246;2023-02-15T05:38:13;36.83;;;25.73;;
40717;SDS011;26405;51.850;-2.246;2023-02-15T05:40:38;36.53;;;25.65;;
40717;SDS011;26405;51.850;-2.246;2023-02-15T05:43:03;37.58;;;25.65;;
40717;SDS011;26405;51.850;-2.246;2023-02-15T05:45:29;35.63;;;25.50;;
40717;SDS011;26405;51.850;-2.246;2023-02-15T05:47:54;36.08;;;25.45;;
40717;SDS011;26405;51.850;-2.246;2023-02-15T05:50:20;37.13;;;27.25;;
40717;SDS011;26405;51.850;-2.246;2023-02-15T05:52:45;32.97;;;24.40;;
40717;SDS011;26405;51.850;-2.246;2023-02-15T05:55:10;34.95;;;24.67;;
40717;SDS011;26405;51.850;-2.246;2023-02-15T05:57:35;32.70;;;23.48;;
40717;SDS011;26405;51.850;-2.246;2023-02-15T06:00:02;35.88;;;25.10;;
40717;SDS011;26405;51.850;-2.246;2023-02-15T06:02:29;35.67;;;25.55;;
40717;SDS011;26405;51.850;-2.246;2023-02-15T06:04:54;36.17;;;24.20;;
40717;SDS011;26405;51.850;-2.246;2023-02-15T06:07:19;34.88;;;25.00;;
40717;SDS011;26405;51.850;-2.246;2023-02-15T06:09:45;36.10;;;25.63;;
40717;SDS011;26405;51.850;-2.246;2023-02-15T06:12:10;38.10;;;26.73;;
40717;SDS011;26405;51.850;-2.246;2023-02-15T06:14:35;36.55;;;24.73;;
40717;SDS011;26405;51.850;-2.246;2023-02-15T06:17:01;38.40;;;26.73;;
40717;SDS011;26405;51.850;-2.246;2023-02-15T06:19:29;33.97;;;24.48;;
40717;SDS011;26405;51.850;-2.246;2023-02-15T06:21:54;37.03;;;25.27;;
40717;SDS011;26405;51.850;-2.246;2023-02-15T06:24:19;33.13;;;23.92;;
40717;SDS011;26405;51.850;-2.246;2023-02-15T06:26:44;33.63;;;23.77;;
40717;SDS011;26405;51.850;-2.246;2023-02-15T06:29:10;34.75;;;24.50;;
40717;SDS011;26405;51.850;-2.246;2023-02-15T06:31:35;34.58;;;24.00;;
40717;SDS011;26405;51.850;-2.246;2023-02-15T06:34:00;33.85;;;23.83;;
40717;SDS011;26405;51.850;-2.246;2023-02-15T06:36:29;35.42;;;25.80;;
40717;SDS011;26405;51.850;-2.246;2023-02-15T06:38:54;37.03;;;25.02;;
40717;SDS011;26405;51.850;-2.246;2023-02-15T06:41:20;34.33;;;24.85;;
40717;SDS011;26405;51.850;-2.246;2023-02-15T06:43:45;37.17;;;26.05;;
40717;SDS011;26405;51.850;-2.246;2023-02-15T06:46:10;37.60;;;25.60;;
40717;SDS011;26405;51.850;-2.246;2023-02-15T06:48:36;34.80;;;24.80;;
40717;SDS011;26405;51.850;-2.246;2023-02-15T06:51:01;36.72;;;27.20;;
40717;SDS011;26405;51.850;-2.246;2023-02-15T06:53:26;39.20;;;27.73;;
40717;SDS011;26405;51.850;-2.246;2023-02-15T06:55:51;36.53;;;26.73;;
40717;SDS011;26405;51.850;-2.246;2023-02-15T06:58:17;37.72;;;27.13;;
40717;SDS011;26405;51.850;-2.246;2023-02-15T07:00:42;39.25;;;28.48;;
40717;SDS011;26405;51.850;-2.246;2023-02-15T07:03:07;39.75;;;29.10;;
40717;SDS011;26405;51.850;-2.246;2023-02-15T07:05:33;38.10;;;28.33;;
40717;SDS011;26405;51.850;-2.246;2023-02-15T07:07:58;41.58;;;29.05;;
40717;SDS011;26405;51.850;-2.246;2023-02-15T07:10:24;44.15;;;30.30;;
40717;SDS011;26405;51.850;-2.246;2023-02-15T07:12:50;42.95;;;30.58;;
40717;SDS011;26405;51.850;-2.246;2023-02-15T07:15:16;39.45;;;28.88;;
40717;SDS011;26405;51.850;-2.246;2023-02-15T07:17:42;38.15;;;27.30;;
40717;SDS011;26405;51.850;-2.246;2023-02-15T07:20:12;39.92;;;28.98;;
40717;SDS011;26405;51.850;-2.246;2023-02-15T07:22:37;37.33;;;27.05;;
40717;SDS011;26405;51.850;-2.246;2023-02-15T07:25:03;37.30;;;28.48;;
40717;SDS011;26405;51.850;-2.246;2023-02-15T07:27:30;39.88;;;27.60;;
40717;SDS011;26405;51.850;-2.246;2023-02-15T07:29:55;38.95;;;28.00;;
40717;SDS011;26405;51.850;-2.246;2023-02-15T07:32:21;39.00;;;27.80;;
40717;SDS011;26405;51.850;-2.246;2023-02-15T07:34:46;38.70;;;27.58;;
40717;SDS011;26405;51.850;-2.246;2023-02-15T07:37:11;38.47;;;26.45;;
40717;SDS011;26405;51.850;-2.246;2023-02-15T07:39:37;36.03;;;25.50;;
40717;SDS011;26405;51.850;-2.246;2023-02-15T07:42:02;37.30;;;25.40;;
40717;SDS011;26405;51.850;-2.246;2023-02-15T07:44:27;38.38;;;25.98;;
40717;SDS011;26405;51.850;-2.246;2023-02-15T07:46:53;37.17;;;25.58;;
40717;SDS011;26405;51.850;-2.246;2023-02-15T07:49:18;34.92;;;23.67;;
40717;SDS011;26405;51.850;-2.246;2023-02-15T07:51:43;35.30;;;22.38;;
40717;SDS011;26405;51.850;-2.246;2023-02-15T07:54:08;34.80;;;23.55;;
40717;SDS011;26405;51.850;-2.246;2023-02-15T07:56:36;34.45;;;22.30;;
40717;SDS011;26405;51.850;-2.246;2023-02-15T08:01:32;35.67;;;23.73;;
40717;SDS011;26405;51.850;-2.246;2023-02-15T08:03:58;36.88;;;22.27;;
40717;SDS011;26405;51.850;-2.246;2023-02-15T08:06:24;37.00;;;24.13;;
40717;SDS011;26405;51.850;-2.246;2023-02-15T08:08:50;34.72;;;24.25;;
40717;SDS011;26405;51.850;-2.246;2023-02-15T08:11:17;35.97;;;24.63;;
40717;SDS011;26405;51.850;-2.246;2023-02-15T08:13:55;36.28;;;24.83;;
40717;SDS011;26405;51.850;-2.246;2023-02-15T08:18:52;37.00;;;25.17;;
40717;SDS011;26405;51.850;-2.246;2023-02-15T08:21:18;39.25;;;27.05;;
40717;SDS011;26405;51.850;-2.246;2023-02-15T08:23:44;36.28;;;24.90;;
40717;SDS011;26405;51.850;-2.246;2023-02-15T08:26:09;36.67;;;25.67;;
40717;SDS011;26405;51.850;-2.246;2023-02-15T08:28:34;36.67;;;24.48;;
40717;SDS011;26405;51.850;-2.246;2023-02-15T08:31:07;36.50;;;25.48;;
40717;SDS011;26405;51.850;-2.246;2023-02-15T08:33:32;36.95;;;25.67;;
40717;SDS011;26405;51.850;-2.246;2023-02-15T08:36:02;36.13;;;25.92;;
40717;SDS011;26405;51.850;-2.246;2023-02-15T08:38:27;39.40;;;26.55;;
40717;SDS011;26405;51.850;-2.246;2023-02-15T08:40:52;38.30;;;26.80;;
40717;SDS011;26405;51.850;-2.246;2023-02-15T08:43:17;34.90;;;24.70;;
40717;SDS011;26405;51.850;-2.246;2023-02-15T08:45:43;38.00;;;25.02;;
40717;SDS011;26405;51.850;-2.246;2023-02-15T08:48:08;36.97;;;24.73;;
40717;SDS011;26405;51.850;-2.246;2023-02-15T08:50:33;37.60;;;25.52;;
40717;SDS011;26405;51.850;-2.246;2023-02-15T08:52:59;34.92;;;24.10;;
40717;SDS011;26405;51.850;-2.246;2023-02-15T08:55:24;36.17;;;24.08;;
40717;SDS011;26405;51.850;-2.246;2023-02-15T08:57:49;37.83;;;23.92;;
40717;SDS011;26405;51.850;-2.246;2023-02-15T09:00:15;35.78;;;24.52;;
40717;SDS011;26405;51.850;-2.246;2023-02-15T09:02:40;36.38;;;24.98;;
40717;SDS011;26405;51.850;-2.246;2023-02-15T09:05:05;34.90;;;23.83;;
40717;SDS011;26405;51.850;-2.246;2023-02-15T09:07:31;32.50;;;22.80;;
40717;SDS011;26405;51.850;-2.246;2023-02-15T09:09:56;34.53;;;23.95;;
40717;SDS011;26405;51.850;-2.246;2023-02-15T09:12:21;32.33;;;22.08;;
40717;SDS011;26405;51.850;-2.246;2023-02-15T09:14:46;33.90;;;22.58;;
40717;SDS011;26405;51.850;-2.246;2023-02-15T09:17:12;33.42;;;21.02;;
40717;SDS011;26405;51.850;-2.246;2023-02-15T09:19:37;31.00;;;21.38;;
40717;SDS011;26405;51.850;-2.246;2023-02-15T09:22:02;31.60;;;20.35;;
40717;SDS011;26405;51.850;-2.246;2023-02-15T09:24:27;31.40;;;21.52;;
40717;SDS011;26405;51.850;-2.246;2023-02-15T09:26:56;29.00;;;18.25;;
40717;SDS011;26405;51.850;-2.246;2023-02-15T09:29:22;33.53;;;22.15;;
40717;SDS011;26405;51.850;-2.246;2023-02-15T09:31:48;30.70;;;19.75;;
40717;SDS011;26405;51.850;-2.246;2023-02-15T09:34:15;31.80;;;21.08;;
40717;SDS011;26405;51.850;-2.246;2023-02-15T09:39:09;31.75;;;19.05;;
40717;SDS011;26405;51.850;-2.246;2023-02-15T09:41:49;31.08;;;19.40;;
40717;SDS011;26405;51.850;-2.246;2023-02-15T09:54:31;32.42;;;19.50;;
40717;SDS011;26405;51.850;-2.246;2023-02-15T09:57:00;30.55;;;19.80;;
40717;SDS011;26405;51.850;-2.246;2023-02-15T10:05:00;29.63;;;17.92;;
40717;SDS011;26405;51.850;-2.246;2023-02-15T10:07:43;29.65;;;18.67;;
40717;SDS011;26405;51.850;-2.246;2023-02-15T10:13:38;31.05;;;17.25;;
40717;SDS011;26405;51.850;-2.246;2023-02-15T10:21:00;25.70;;;15.02;;
40717;SDS011;26405;51.850;-2.246;2023-02-15T10:26:03;25.20;;;14.57;;
40717;SDS011;26405;51.850;-2.246;2023-02-15T10:28:38;30.52;;;14.30;;
40717;SDS011;26405;51.850;-2.246;2023-02-15T10:31:11;29.13;;;16.53;;
40717;SDS011;26405;51.850;-2.246;2023-02-15T10:33:42;29.38;;;16.25;;
40717;SDS011;26405;51.850;-2.246;2023-02-15T10:38:40;28.58;;;17.10;;
40717;SDS011;26405;51.850;-2.246;2023-02-15T10:41:15;28.95;;;17.50;;
40717;SDS011;26405;51.850;-2.246;2023-02-15T10:46:16;29.20;;;17.00;;
40717;SDS011;26405;51.850;-2.246;2023-02-15T10:51:16;27.60;;;17.25;;
40717;SDS011;26405;51.850;-2.246;2023-02-15T11:01:18;27.90;;;15.07;;
40717;SDS011;26405;51.850;-2.246;2023-02-15T11:06:14;31.47;;;16.17;;
40717;SDS011;26405;51.850;-2.246;2023-02-15T11:08:43;27.55;;;14.82;;
40717;SDS011;26405;51.850;-2.246;2023-02-15T11:11:13;26.02;;;15.15;;
40717;SDS011;26405;51.850;-2.246;2023-02-15T11:13:40;27.48;;;15.90;;
40717;SDS011;26405;51.850;-2.246;2023-02-15T11:16:14;26.90;;;15.88;;
40717;SDS011;26405;51.850;-2.246;2023-02-15T11:18:42;26.45;;;13.93;;
40717;SDS011;26405;51.850;-2.246;2023-02-15T11:21:13;24.00;;;12.95;;
40717;SDS011;26405;51.850;-2.246;2023-02-15T11:23:44;27.08;;;14.68;;
40717;SDS011;26405;51.850;-2.246;2023-02-15T11:28:59;28.58;;;13.52;;
40717;SDS011;26405;51.850;-2.246;2023-02-15T11:31:26;27.00;;;13.55;;
40717;SDS011;26405;51.850;-2.246;2023-02-15T11:33:56;25.75;;;11.57;;
40717;SDS011;26405;51.850;-2.246;2023-02-15T11:36:27;23.77;;;10.43;;
40717;SDS011;26405;51.850;-2.246;2023-02-15T11:38:58;23.73;;;7.60;;
40717;SDS011;26405;51.850;-2.246;2023-02-15T11:41:28;21.83;;;7.40;;
40717;SDS011;26405;51.850;-2.246;2023-02-15T11:46:22;19.77;;;7.53;;
40717;SDS011;26405;51.850;-2.246;2023-02-15T11:48:48;20.05;;;7.40;;
40717;SDS011;26405;51.850;-2.246;2023-02-15T11:51:14;22.40;;;6.97;;
40717;SDS011;26405;51.850;-2.246;2023-02-15T11:53:41;24.13;;;7.95;;
40717;SDS011;26405;51.850;-2.246;2023-02-15T11:58:35;23.20;;;7.45;;
40717;SDS011;26405;51.850;-2.246;2023-02-15T12:06:54;24.35;;;7.25;;
40717;SDS011;26405;51.850;-2.246;2023-02-15T12:09:24;21.48;;;6.88;;
40717;SDS011;26405;51.850;-2.246;2023-02-15T12:11:52;21.92;;;6.65;;
40717;SDS011;26405;51.850;-2.246;2023-02-15T12:14:17;23.30;;;6.53;;
40717;SDS011;26405;51.850;-2.246;2023-02-15T12:16:46;24.05;;;6.70;;
40717;SDS011;26405;51.850;-2.246;2023-02-15T12:21:44;22.52;;;7.28;;
40717;SDS011;26405;51.850;-2.246;2023-02-15T12:24:30;22.80;;;6.72;;
40717;SDS011;26405;51.850;-2.246;2023-02-15T12:27:06;20.37;;;6.40;;
40717;SDS011;26405;51.850;-2.246;2023-02-15T12:32:19;23.35;;;6.80;;
40717;SDS011;26405;51.850;-2.246;2023-02-15T12:34:46;23.75;;;7.55;;
40717;SDS011;26405;51.850;-2.246;2023-02-15T12:37:28;21.80;;;6.93;;
40717;SDS011;26405;51.850;-2.246;2023-02-15T12:39:55;23.23;;;7.50;;
40717;SDS011;26405;51.850;-2.246;2023-02-15T12:42:21;21.85;;;6.65;;
40717;SDS011;26405;51.850;-2.246;2023-02-15T12:45:00;21.63;;;6.82;;
40717;SDS011;26405;51.850;-2.246;2023-02-15T12:47:25;20.05;;;7.07;;
40717;SDS011;26405;51.850;-2.246;2023-02-15T12:52:42;20.17;;;6.32;;
40717;SDS011;26405;51.850;-2.246;2023-02-15T12:55:26;23.03;;;6.40;;
40717;SDS011;26405;51.850;-2.246;2023-02-15T13:00:38;23.60;;;7.10;;
40717;SDS011;26405;51.850;-2.246;2023-02-15T13:03:04;19.55;;;6.25;;
40717;SDS011;26405;51.850;-2.246;2023-02-15T13:05:37;20.98;;;6.28;;
40717;SDS011;26405;51.850;-2.246;2023-02-15T13:08:08;17.92;;;6.03;;
40717;SDS011;26405;51.850;-2.246;2023-02-15T13:10:40;26.42;;;7.03;;
40717;SDS011;26405;51.850;-2.246;2023-02-15T13:13:10;19.05;;;6.05;;
40717;SDS011;26405;51.850;-2.246;2023-02-15T13:15:36;19.83;;;6.30;;
40717;SDS011;26405;51.850;-2.246;2023-02-15T13:18:03;19.52;;;6.15;;
40717;SDS011;26405;51.850;-2.246;2023-02-15T13:20:29;21.65;;;6.72;;
40717;SDS011;26405;51.850;-2.246;2023-02-15T13:23:02;25.20;;;6.50;;
40717;SDS011;26405;51.850;-2.246;2023-02-15T13:25:31;20.20;;;5.88;;
40717;SDS011;26405;51.850;-2.246;2023-02-15T13:28:02;22.25;;;7.25;;
40717;SDS011;26405;51.850;-2.246;2023-02-15T13:30:49;23.27;;;6.55;;
40717;SDS011;26405;51.850;-2.246;2023-02-15T13:35:56;24.40;;;6.32;;
40717;SDS011;26405;51.850;-2.246;2023-02-15T13:38:49;22.88;;;6.47;;
40717;SDS011;26405;51.850;-2.246;2023-02-15T13:41:33;19.08;;;5.53;;
40717;SDS011;26405;51.850;-2.246;2023-02-15T13:44:07;21.00;;;6.18;;
40717;SDS011;26405;51.850;-2.246;2023-02-15T13:46:45;26.02;;;6.32;;
40717;SDS011;26405;51.850;-2.246;2023-02-15T13:59:46;21.42;;;6.78;;
40717;SDS011;26405;51.850;-2.246;2023-02-15T14:20:19;22.25;;;6.40;;
40717;SDS011;26405;51.850;-2.246;2023-02-15T14:23:00;21.60;;;6.78;;
40717;SDS011;26405;51.850;-2.246;2023-02-15T14:25:39;23.58;;;6.03;;
40717;SDS011;26405;51.850;-2.246;2023-02-15T14:30:41;22.35;;;5.78;;
40717;SDS011;26405;51.850;-2.246;2023-02-15T14:33:52;24.83;;;6.93;;
40717;SDS011;26405;51.850;-2.246;2023-02-15T14:35:56;23.38;;;5.80;;
40717;SDS011;26405;51.850;-2.246;2023-02-15T14:40:58;19.05;;;5.47;;
40717;SDS011;26405;51.850;-2.246;2023-02-15T14:43:30;21.33;;;6.45;;
40717;SDS011;26405;51.850;-2.246;2023-02-15T14:46:01;20.33;;;5.93;;
40717;SDS011;26405;51.850;-2.246;2023-02-15T14:48:30;20.63;;;6.22;;
40717;SDS011;26405;51.850;-2.246;2023-02-15T14:50:56;22.02;;;6.30;;
40717;SDS011;26405;51.850;-2.246;2023-02-15T14:53:32;23.60;;;6.00;;
40717;SDS011;26405;51.850;-2.246;2023-02-15T14:58:38;20.33;;;5.22;;
40717;SDS011;26405;51.850;-2.246;2023-02-15T15:01:07;23.98;;;6.05;;
40717;SDS011;26405;51.850;-2.246;2023-02-15T15:03:33;20.10;;;5.57;;
40717;SDS011;26405;51.850;-2.246;2023-02-15T15:05:58;24.25;;;6.18;;
40717;SDS011;26405;51.850;-2.246;2023-02-15T15:08:29;22.42;;;6.45;;
40717;SDS011;26405;51.850;-2.246;2023-02-15T15:10:56;23.83;;;5.53;;
40717;SDS011;26405;51.850;-2.246;2023-02-15T15:15:56;21.73;;;5.65;;
40717;SDS011;26405;51.850;-2.246;2023-02-15T15:21:06;25.58;;;7.55;;
40717;SDS011;26405;51.850;-2.246;2023-02-15T15:23:39;25.08;;;7.90;;
40717;SDS011;26405;51.850;-2.246;2023-02-15T15:26:24;20.83;;;7.47;;
40717;SDS011;26405;51.850;-2.246;2023-02-15T15:38:53;17.70;;;5.95;;
40717;SDS011;26405;51.850;-2.246;2023-02-15T15:46:24;19.37;;;5.37;;
40717;SDS011;26405;51.850;-2.246;2023-02-15T15:48:57;14.13;;;4.57;;
40717;SDS011;26405;51.850;-2.246;2023-02-15T15:51:27;16.15;;;5.15;;
40717;SDS011;26405;51.850;-2.246;2023-02-15T15:53:54;15.20;;;5.00;;
40717;SDS011;26405;51.850;-2.246;2023-02-15T15:56:21;15.05;;;4.60;;
40717;SDS011;26405;51.850;-2.246;2023-02-15T15:59:12;12.82;;;4.35;;
40717;SDS011;26405;51.850;-2.246;2023-02-15T16:01:43;14.80;;;4.22;;
40717;SDS011;26405;51.850;-2.246;2023-02-15T16:04:28;13.90;;;3.80;;
40717;SDS011;26405;51.850;-2.246;2023-02-15T16:06:55;18.57;;;4.60;;
40717;SDS011;26405;51.850;-2.246;2023-02-15T16:09:22;13.27;;;4.45;;
40717;SDS011;26405;51.850;-2.246;2023-02-15T16:11:49;14.80;;;4.40;;
40717;SDS011;26405;51.850;-2.246;2023-02-15T16:16:47;14.90;;;4.15;;
40717;SDS011;26405;51.850;-2.246;2023-02-15T16:19:19;13.55;;;4.50;;
40717;SDS011;26405;51.850;-2.246;2023-02-15T16:21:46;15.20;;;4.82;;
40717;SDS011;26405;51.850;-2.246;2023-02-15T16:29:16;14.48;;;5.13;;
40717;SDS011;26405;51.850;-2.246;2023-02-15T16:31:42;14.13;;;4.90;;
40717;SDS011;26405;51.850;-2.246;2023-02-15T16:34:16;14.20;;;4.78;;
40717;SDS011;26405;51.850;-2.246;2023-02-15T16:36:42;12.80;;;5.03;;
40717;SDS011;26405;51.850;-2.246;2023-02-15T16:39:09;17.38;;;5.95;;
40717;SDS011;26405;51.850;-2.246;2023-02-15T16:41:34;16.70;;;5.35;;
40717;SDS011;26405;51.850;-2.246;2023-02-15T16:44:03;19.30;;;6.00;;
40717;SDS011;26405;51.850;-2.246;2023-02-15T16:46:33;13.60;;;5.28;;
40717;SDS011;26405;51.850;-2.246;2023-02-15T16:49:01;18.75;;;6.57;;
40717;SDS011;26405;51.850;-2.246;2023-02-15T16:51:27;15.18;;;5.60;;
40717;SDS011;26405;51.850;-2.246;2023-02-15T16:53:53;19.33;;;6.80;;
40717;SDS011;26405;51.850;-2.246;2023-02-15T16:56:26;18.60;;;6.68;;
40717;SDS011;26405;51.850;-2.246;2023-02-15T16:58:53;18.20;;;6.30;;